createdAt,value
2023-05-07T00:00:39.765Z,7.38
2023-05-07T00:03:08.029Z,7.07
2023-05-07T00:05:36.100Z,6.88
2023-05-07T00:08:03.944Z,7.18
2023-05-07T00:10:31.539Z,7.18
2023-05-07T00:13:00.405Z,7.25
2023-05-07T00:15:27.993Z,6.90
2023-05-07T00:17:56.971Z,8.10
2023-05-07T00:20:24.936Z,8.40
2023-05-07T00:22:52.571Z,7.68
2023-05-07T00:25:20.747Z,7.75
2023-05-07T00:27:48.561Z,7.72
2023-05-07T00:30:16.298Z,7.88
2023-05-07T00:32:46.417Z,7.50
2023-05-07T00:35:14.068Z,8.05
2023-05-07T00:37:41.707Z,8.05
2023-05-07T00:40:10.157Z,8.75
2023-05-07T00:42:38.354Z,8.70
2023-05-07T00:45:08.746Z,8.60
2023-05-07T00:47:37.058Z,8.23
2023-05-07T00:50:06.527Z,8.80
2023-05-07T00:52:34.284Z,10.00
2023-05-07T00:55:07.704Z,9.18
2023-05-07T00:57:42.020Z,9.65
2023-05-07T01:00:11.476Z,10.23
2023-05-07T01:02:40.666Z,11.18
2023-05-07T01:05:21.201Z,10.55
2023-05-07T01:07:51.299Z,11.85
2023-05-07T01:10:20.002Z,11.73
2023-05-07T01:12:50.166Z,11.77
2023-05-07T01:15:18.946Z,11.57
2023-05-07T01:17:47.894Z,12.35
2023-05-07T01:20:23.942Z,11.57
2023-05-07T01:22:54.260Z,11.07
2023-05-07T01:25:22.086Z,12.80
2023-05-07T01:30:24.406Z,13.73
2023-05-07T01:33:03.921Z,14.85
2023-05-07T01:35:40.082Z,14.48
2023-05-07T01:38:09.426Z,14.15
2023-05-07T01:40:37.459Z,11.68
2023-05-07T01:43:06.553Z,12.80
2023-05-07T01:45:36.435Z,13.27
2023-05-07T01:48:05.090Z,13.80
2023-05-07T01:50:34.709Z,13.77
2023-05-07T01:53:03.493Z,14.15
2023-05-07T01:55:31.364Z,14.05
2023-05-07T01:58:00.116Z,14.02
2023-05-07T02:00:28.257Z,13.98
2023-05-07T02:02:56.061Z,13.23
2023-05-07T02:05:38.437Z,13.77
2023-05-07T02:08:13.605Z,13.95
2023-05-07T02:10:41.459Z,15.32
2023-05-07T02:13:09.018Z,14.43
2023-05-07T02:15:36.751Z,15.15
2023-05-07T02:18:10.014Z,15.13
2023-05-07T02:20:37.970Z,14.27
2023-05-07T02:23:05.789Z,15.85
2023-05-07T02:25:33.433Z,16.35
2023-05-07T02:28:01.146Z,17.52
2023-05-07T02:30:43.460Z,17.40
2023-05-07T02:33:13.573Z,17.83
2023-05-07T02:35:42.212Z,18.67
2023-05-07T02:38:11.891Z,18.13
2023-05-07T02:40:40.882Z,18.08
2023-05-07T02:43:08.673Z,17.77
2023-05-07T02:45:38.650Z,18.70
2023-05-07T02:48:08.067Z,18.73
2023-05-07T02:50:35.787Z,19.42
2023-05-07T02:53:03.376Z,19.95
2023-05-07T02:55:31.590Z,19.05
2023-05-07T02:57:59.249Z,19.60
2023-05-07T03:00:27.445Z,20.42
2023-05-07T03:03:24.547Z,12.75
2023-05-07T03:05:52.598Z,12.82
2023-05-07T03:08:20.215Z,15.50
2023-05-07T03:10:48.334Z,16.60
2023-05-07T03:13:16.081Z,17.52
2023-05-07T03:15:44.245Z,13.27
2023-05-07T03:18:11.947Z,16.65
2023-05-07T03:20:39.769Z,18.75
2023-05-07T03:23:07.495Z,18.83
2023-05-07T03:25:35.379Z,18.48
2023-05-07T03:28:03.106Z,20.85
2023-05-07T03:30:39.864Z,17.70
2023-05-07T03:33:07.739Z,15.73
2023-05-07T03:35:35.446Z,15.50
2023-05-07T03:38:03.268Z,13.23
2023-05-07T03:40:34.367Z,14.05
2023-05-07T03:43:03.009Z,14.48
2023-05-07T03:45:32.558Z,14.20
2023-05-07T03:48:11.071Z,14.00
2023-05-07T03:50:39.292Z,13.18
2023-05-07T03:53:07.166Z,14.30
2023-05-07T03:55:38.851Z,14.70
2023-05-07T03:58:06.584Z,13.77
2023-05-07T04:00:39.072Z,16.00
2023-05-07T04:03:15.708Z,15.55
2023-05-07T04:05:43.735Z,15.52
2023-05-07T04:08:11.366Z,16.38
2023-05-07T04:10:47.185Z,15.55
2023-05-07T04:13:15.166Z,16.60
2023-05-07T04:15:43.732Z,15.23
2023-05-07T04:18:14.033Z,16.42
2023-05-07T04:20:45.482Z,15.88
2023-05-07T04:23:15.464Z,15.63
2023-05-07T04:25:43.264Z,17.20
2023-05-07T04:28:25.155Z,14.88
2023-05-07T04:30:52.881Z,16.80
2023-05-07T04:33:22.130Z,16.63
2023-05-07T04:35:51.943Z,16.50
2023-05-07T04:38:19.748Z,15.90
2023-05-07T04:40:50.782Z,17.58
2023-05-07T04:43:22.534Z,16.13
2023-05-07T04:45:53.255Z,16.20
2023-05-07T04:48:23.228Z,16.92
2023-05-07T04:50:52.756Z,16.38
2023-05-07T04:53:21.724Z,16.33
2023-05-07T04:55:57.804Z,17.55
2023-05-07T04:58:27.055Z,15.43
2023-05-07T05:00:57.475Z,16.52
2023-05-07T05:03:25.287Z,17.08
2023-05-07T05:05:53.947Z,17.85
2023-05-07T05:08:23.096Z,16.83
2023-05-07T05:10:51.079Z,17.80
2023-05-07T05:13:19.218Z,16.83
2023-05-07T05:15:47.889Z,15.98
2023-05-07T05:18:15.546Z,16.63
2023-05-07T05:20:43.207Z,15.50
2023-05-07T05:23:10.874Z,16.15
2023-05-07T05:25:40.272Z,18.23
2023-05-07T05:28:09.873Z,18.47
2023-05-07T05:30:37.779Z,15.07
2023-05-07T05:33:05.481Z,14.57
2023-05-07T05:35:33.408Z,15.15
2023-05-07T05:40:33.202Z,14.88
2023-05-07T05:43:01.306Z,14.45
2023-05-07T05:45:29.278Z,20.23
2023-05-07T05:47:58.533Z,19.95
2023-05-07T05:50:26.717Z,20.25
2023-05-07T05:52:55.754Z,19.98
2023-05-07T05:55:23.645Z,19.75
2023-05-07T05:57:52.120Z,20.70
2023-05-07T06:00:23.290Z,19.88
2023-05-07T06:02:58.817Z,19.33
2023-05-07T06:05:27.736Z,18.30
2023-05-07T06:07:57.493Z,17.75
2023-05-07T06:10:26.805Z,17.58
2023-05-07T06:12:54.459Z,17.23
2023-05-07T06:15:22.399Z,17.77
2023-05-07T06:17:50.509Z,17.63
2023-05-07T06:20:18.528Z,16.88
2023-05-07T06:22:46.768Z,17.00
2023-05-07T06:25:16.338Z,16.95
2023-05-07T06:27:44.898Z,15.20
2023-05-07T06:30:13.227Z,16.88
2023-05-07T06:32:42.059Z,15.88
2023-05-07T06:35:10.740Z,20.73
2023-05-07T06:37:40.645Z,22.40
2023-05-07T06:40:10.500Z,20.38
2023-05-07T06:42:40.494Z,20.30
2023-05-07T06:45:37.343Z,18.60
2023-05-07T06:48:06.856Z,19.83
2023-05-07T06:50:43.636Z,20.58
2023-05-07T06:53:12.481Z,19.55
2023-05-07T06:55:40.536Z,19.88
2023-05-07T06:58:10.614Z,18.35
2023-05-07T07:00:38.872Z,16.53
2023-05-07T07:03:06.692Z,14.32
2023-05-07T07:05:34.391Z,15.90
2023-05-07T07:08:05.178Z,15.18
2023-05-07T07:10:32.947Z,15.07
2023-05-07T07:13:01.502Z,14.75
2023-05-07T07:15:29.450Z,14.52
2023-05-07T07:17:57.830Z,13.60
2023-05-07T07:20:26.831Z,14.90
2023-05-07T07:22:55.238Z,13.48
2023-05-07T07:25:23.218Z,13.68
2023-05-07T07:27:52.103Z,12.63
2023-05-07T07:30:19.889Z,14.00
2023-05-07T07:32:50.594Z,16.93
2023-05-07T07:35:18.687Z,19.92
2023-05-07T07:37:47.053Z,18.92
2023-05-07T07:40:16.011Z,19.27
2023-05-07T07:42:44.320Z,18.10
2023-05-07T07:45:13.360Z,17.33
2023-05-07T07:47:46.066Z,17.17
2023-05-07T07:50:19.412Z,16.02
2023-05-07T07:52:53.264Z,16.30
2023-05-07T07:55:23.913Z,16.73
2023-05-07T07:57:53.721Z,16.65
2023-05-07T08:00:22.294Z,15.95
2023-05-07T08:02:54.289Z,16.55
2023-05-07T08:05:27.715Z,15.02
2023-05-07T08:07:56.068Z,14.07
2023-05-07T08:10:28.462Z,13.00
2023-05-07T08:13:04.964Z,14.55
2023-05-07T08:15:33.093Z,15.65
2023-05-07T08:18:03.397Z,14.82
2023-05-07T08:20:31.607Z,14.43
2023-05-07T08:23:01.774Z,13.88
2023-05-07T08:25:29.455Z,13.95
2023-05-07T08:27:57.300Z,13.55
2023-05-07T08:30:28.043Z,10.13
2023-05-07T08:32:56.971Z,10.77
2023-05-07T08:35:24.960Z,11.75
2023-05-07T08:37:52.632Z,12.20
2023-05-07T08:40:27.455Z,12.75
2023-05-07T08:42:58.934Z,12.57
2023-05-07T08:45:29.722Z,10.18
2023-05-07T08:48:03.047Z,9.43
2023-05-07T08:50:37.654Z,10.85
2023-05-07T08:53:06.821Z,9.10
2023-05-07T08:55:42.094Z,9.23
2023-05-07T08:58:10.782Z,9.40
2023-05-07T09:00:42.703Z,9.77
2023-05-07T09:03:14.174Z,10.32
2023-05-07T09:05:46.728Z,9.25
2023-05-07T09:08:17.599Z,8.30
2023-05-07T09:10:49.623Z,8.98
2023-05-07T09:13:19.748Z,9.20
2023-05-07T09:15:54.048Z,8.77
2023-05-07T09:18:30.999Z,9.23
2023-05-07T09:20:58.971Z,9.15
2023-05-07T09:23:33.045Z,9.07
2023-05-07T09:26:11.299Z,10.00
2023-05-07T09:28:53.366Z,9.10
2023-05-07T09:31:24.404Z,10.07
2023-05-07T09:33:54.311Z,10.88
2023-05-07T09:36:22.336Z,10.10
2023-05-07T09:38:52.440Z,8.70
2023-05-07T09:41:20.378Z,9.60
2023-05-07T09:43:59.118Z,8.90
2023-05-07T09:46:37.191Z,9.23
2023-05-07T09:49:18.105Z,9.70
2023-05-07T09:51:52.452Z,9.48
2023-05-07T09:54:24.512Z,6.88
2023-05-07T09:56:55.743Z,6.60
2023-05-07T09:59:30.221Z,6.72
2023-05-07T10:02:04.861Z,7.22
2023-05-07T10:04:36.947Z,6.78
2023-05-07T10:07:06.845Z,6.88
2023-05-07T10:09:39.460Z,7.00
2023-05-07T10:12:10.922Z,9.05
2023-05-07T10:14:42.067Z,8.02
2023-05-07T10:17:13.437Z,8.65
2023-05-07T10:19:45.942Z,9.20
2023-05-07T10:22:16.267Z,8.17
2023-05-07T10:24:53.516Z,8.38
2023-05-07T10:27:23.566Z,8.63
2023-05-07T10:30:16.602Z,7.57
2023-05-07T10:32:50.066Z,7.72
2023-05-07T10:35:31.470Z,7.82
2023-05-07T10:38:00.580Z,8.05
2023-05-07T10:40:32.649Z,7.93
2023-05-07T10:43:08.567Z,7.13
2023-05-07T10:49:50.374Z,5.95
2023-05-07T10:52:27.119Z,7.55
2023-05-07T10:55:22.576Z,8.45
2023-05-07T10:58:31.554Z,7.70
2023-05-07T11:01:12.020Z,8.45
2023-05-07T11:04:15.530Z,7.95
2023-05-07T11:07:11.093Z,7.53
2023-05-07T11:09:54.126Z,7.20
2023-05-07T11:12:39.348Z,6.40
2023-05-07T11:15:16.655Z,5.80
2023-05-07T11:17:55.634Z,5.88
2023-05-07T11:20:48.320Z,5.85
2023-05-07T11:23:51.178Z,6.25
2023-05-07T11:26:51.906Z,6.13
2023-05-07T11:29:23.462Z,6.03
2023-05-07T11:31:57.105Z,5.38
2023-05-07T11:34:28.686Z,4.70
2023-05-07T11:37:00.985Z,4.97
2023-05-07T11:39:55.311Z,5.00
2023-05-07T11:42:33.566Z,4.75
2023-05-07T11:45:02.627Z,5.35
2023-05-07T11:47:38.231Z,3.95
2023-05-07T11:50:11.509Z,4.35
2023-05-07T11:52:40.221Z,4.60
2023-05-07T11:55:09.054Z,4.82
2023-05-07T11:57:36.963Z,4.72
2023-05-07T12:00:06.343Z,4.50
2023-05-07T12:02:44.432Z,4.45
2023-05-07T12:05:12.678Z,4.20
2023-05-07T12:07:40.754Z,4.20
2023-05-07T12:10:09.285Z,4.65
2023-05-07T12:12:46.810Z,4.35
2023-05-07T12:15:19.798Z,4.20
2023-05-07T12:17:47.576Z,4.07
2023-05-07T12:20:15.701Z,4.55
2023-05-07T12:22:44.545Z,4.68
2023-05-07T12:25:12.478Z,4.25
2023-05-07T12:27:42.109Z,4.95
2023-05-07T12:30:12.686Z,5.20
2023-05-07T12:32:40.444Z,5.83
2023-05-07T12:35:08.896Z,5.53
2023-05-07T12:37:37.108Z,4.93
2023-05-07T12:40:11.150Z,4.65
2023-05-07T12:42:41.595Z,6.05
2023-05-07T12:45:17.018Z,5.38
2023-05-07T12:47:49.002Z,4.60
2023-05-07T12:50:17.468Z,5.13
2023-05-07T12:52:48.660Z,4.68
2023-05-07T12:55:19.210Z,4.82
2023-05-07T12:57:49.808Z,5.40
2023-05-07T13:00:17.713Z,5.10
2023-05-07T13:02:46.605Z,5.03
2023-05-07T13:05:14.808Z,5.22
2023-05-07T13:07:57.163Z,6.22
2023-05-07T13:10:26.279Z,5.55
2023-05-07T13:12:54.031Z,3.40
2023-05-07T13:15:22.963Z,3.30
2023-05-07T13:17:51.127Z,3.55
2023-05-07T13:20:18.797Z,3.38
2023-05-07T13:22:46.349Z,4.35
2023-05-07T13:25:14.158Z,3.45
2023-05-07T13:27:42.020Z,3.58
2023-05-07T13:30:09.652Z,3.80
2023-05-07T13:32:37.295Z,3.70
2023-05-07T13:35:05.594Z,3.55
2023-05-07T13:37:33.267Z,3.80
2023-05-07T13:40:00.897Z,3.92
2023-05-07T13:42:28.485Z,3.50
2023-05-07T13:44:56.306Z,3.55
2023-05-07T13:47:24.731Z,3.70
2023-05-07T13:49:53.581Z,3.38
2023-05-07T13:52:21.418Z,3.63
2023-05-07T13:54:48.986Z,2.80
2023-05-07T13:57:16.658Z,1.20
2023-05-07T13:59:44.168Z,0.80
2023-05-07T14:02:11.810Z,1.10
2023-05-07T14:04:39.419Z,1.08
2023-05-07T14:07:07.034Z,0.95
2023-05-07T14:09:34.606Z,1.02
2023-05-07T14:12:02.496Z,1.02
2023-05-07T14:14:30.183Z,1.10
2023-05-07T14:16:58.505Z,0.90
2023-05-07T14:19:26.595Z,0.90
2023-05-07T14:21:54.243Z,0.80
2023-05-07T14:24:34.515Z,1.20
2023-05-07T14:27:05.512Z,0.93
2023-05-07T14:29:33.381Z,1.10
2023-05-07T14:32:01.011Z,1.40
2023-05-07T14:34:28.653Z,1.50
2023-05-07T14:36:56.619Z,1.60
2023-05-07T14:39:24.335Z,1.60
2023-05-07T14:41:52.114Z,1.98
2023-05-07T14:44:19.674Z,1.58
2023-05-07T14:46:47.480Z,1.60
2023-05-07T14:49:18.120Z,1.60
2023-05-07T14:51:47.203Z,1.63
2023-05-07T14:54:15.593Z,1.55
2023-05-07T14:56:43.616Z,2.00
2023-05-07T14:59:11.513Z,2.08
2023-05-07T15:01:41.305Z,2.10
2023-05-07T15:04:09.153Z,2.17
2023-05-07T15:06:36.725Z,2.10
2023-05-07T15:09:04.590Z,2.17
2023-05-07T15:11:32.303Z,1.95
2023-05-07T15:14:00.033Z,2.00
2023-05-07T15:16:27.879Z,2.38
2023-05-07T15:18:55.559Z,1.95
2023-05-07T15:21:23.984Z,1.92
2023-05-07T15:23:51.792Z,1.77
2023-05-07T15:26:21.674Z,1.83
2023-05-07T15:28:49.332Z,1.70
2023-05-07T15:31:18.042Z,1.30
2023-05-07T15:33:45.696Z,1.20
2023-05-07T15:36:13.298Z,1.00
2023-05-07T15:38:42.058Z,1.17
2023-05-07T15:41:10.337Z,1.10
2023-05-07T15:43:47.919Z,1.00
2023-05-07T15:46:25.648Z,1.00
2023-05-07T15:48:54.484Z,1.00
2023-05-07T15:51:23.404Z,1.20
2023-05-07T15:53:52.536Z,1.00
2023-05-07T15:56:20.104Z,1.10
2023-05-07T15:58:48.432Z,0.90
2023-05-07T16:01:16.397Z,1.08
2023-05-07T16:03:44.728Z,1.08
2023-05-07T16:06:12.636Z,1.40
2023-05-07T16:08:41.569Z,1.48
2023-05-07T16:11:09.322Z,1.40
2023-05-07T16:13:37.097Z,1.65
2023-05-07T16:16:07.675Z,1.45
2023-05-07T16:18:37.019Z,1.30
2023-05-07T16:21:04.643Z,1.45
2023-05-07T16:23:32.574Z,1.23
2023-05-07T16:26:00.182Z,1.40
2023-05-07T16:28:27.827Z,1.70
2023-05-07T16:30:55.710Z,2.28
2023-05-07T16:33:23.368Z,2.33
2023-05-07T16:35:54.391Z,2.78
2023-05-07T16:38:22.004Z,3.30
2023-05-07T16:40:49.574Z,5.45
2023-05-07T16:43:17.377Z,5.57
2023-05-07T16:45:46.578Z,5.47
2023-05-07T16:48:14.244Z,5.78
2023-05-07T16:50:44.479Z,6.68
2023-05-07T16:53:12.333Z,6.03
2023-05-07T16:55:41.608Z,6.75
2023-05-07T16:58:11.722Z,6.25
2023-05-07T17:00:50.206Z,6.40
2023-05-07T17:03:19.620Z,6.00
2023-05-07T17:05:47.533Z,5.38
2023-05-07T17:08:15.211Z,3.70
2023-05-07T17:10:42.777Z,3.97
2023-05-07T17:13:10.350Z,4.78
2023-05-07T17:15:37.966Z,4.68
2023-05-07T17:18:05.761Z,5.50
2023-05-07T17:20:34.911Z,4.65
2023-05-07T17:23:02.600Z,4.40
2023-05-07T17:25:34.357Z,4.50
2023-05-07T17:28:02.026Z,5.30
2023-05-07T17:30:29.608Z,5.15
2023-05-07T17:33:03.798Z,4.30
2023-05-07T17:35:37.070Z,5.05
2023-05-07T17:38:04.782Z,4.60
2023-05-07T17:40:34.546Z,4.80
2023-05-07T17:43:02.114Z,5.82
2023-05-07T17:45:29.690Z,4.65
2023-05-07T17:47:57.301Z,4.40
2023-05-07T17:50:24.893Z,4.07
2023-05-07T17:52:52.415Z,3.38
2023-05-07T17:55:20.224Z,3.33
2023-05-07T17:57:48.060Z,3.58
2023-05-07T18:00:16.185Z,2.92
2023-05-07T18:02:43.932Z,3.60
2023-05-07T18:05:11.660Z,3.72
2023-05-07T18:07:39.252Z,3.22
2023-05-07T18:10:07.400Z,3.53
2023-05-07T18:12:35.690Z,3.35
2023-05-07T18:15:03.812Z,3.95
2023-05-07T18:17:31.423Z,3.38
2023-05-07T18:19:58.977Z,3.28
2023-05-07T18:22:28.845Z,2.83
2023-05-07T18:24:56.415Z,3.30
2023-05-07T18:27:24.056Z,2.88
2023-05-07T18:30:15.861Z,3.00
2023-05-07T18:35:10.943Z,2.88
2023-05-07T18:37:38.591Z,2.90
2023-05-07T18:40:06.869Z,3.38
2023-05-07T18:42:37.329Z,2.43
2023-05-07T18:45:05.674Z,3.08
2023-05-07T18:47:39.780Z,3.10
2023-05-07T18:50:09.285Z,2.83
2023-05-07T18:52:37.313Z,2.25
2023-05-07T18:55:06.758Z,3.20
2023-05-07T18:57:34.478Z,2.83
2023-05-07T19:00:03.640Z,3.90
2023-05-07T19:02:31.156Z,3.72
2023-05-07T19:04:58.950Z,3.70
2023-05-07T19:07:26.525Z,4.18
2023-05-07T19:10:04.213Z,4.30
2023-05-07T19:12:33.462Z,4.22
2023-05-07T19:15:01.117Z,4.15
2023-05-07T19:17:28.726Z,4.20
2023-05-07T19:19:56.344Z,3.90
2023-05-07T19:22:24.047Z,4.10
2023-05-07T19:24:51.712Z,4.07
2023-05-07T19:27:19.320Z,4.40
2023-05-07T19:29:46.904Z,4.10
2023-05-07T19:32:14.417Z,4.32
2023-05-07T19:34:42.142Z,4.53
2023-05-07T19:37:09.678Z,4.28
2023-05-07T19:39:37.313Z,4.63
2023-05-07T19:42:05.069Z,5.00
2023-05-07T19:44:32.705Z,5.20
2023-05-07T19:47:02.363Z,4.32
2023-05-07T19:49:29.949Z,5.00
2023-05-07T19:51:57.466Z,5.07
2023-05-07T19:54:27.261Z,4.93
2023-05-07T19:56:56.556Z,5.07
2023-05-07T19:59:24.515Z,5.10
2023-05-07T20:01:52.137Z,4.60
2023-05-07T20:04:19.759Z,5.47
2023-05-07T20:06:49.529Z,5.93
2023-05-07T20:09:19.403Z,5.65
2023-05-07T20:11:47.001Z,6.40
2023-05-07T20:14:15.157Z,5.97
2023-05-07T20:16:43.006Z,6.68
2023-05-07T20:19:10.679Z,6.40
2023-05-07T20:21:38.249Z,6.57
2023-05-07T20:24:07.399Z,6.38
2023-05-07T20:26:35.010Z,6.72
2023-05-07T20:29:03.415Z,6.63
2023-05-07T20:31:38.172Z,6.80
2023-05-07T20:34:45.110Z,6.45
2023-05-07T20:37:15.851Z,7.20
2023-05-07T20:39:43.738Z,7.60
2023-05-07T20:42:11.286Z,7.63
2023-05-07T20:44:39.017Z,7.72
2023-05-07T20:47:06.585Z,7.40
2023-05-07T20:49:34.162Z,8.93
2023-05-07T20:52:01.906Z,10.07
2023-05-07T20:54:29.576Z,9.35
2023-05-07T20:56:58.002Z,10.10
2023-05-07T20:59:25.664Z,11.38
2023-05-07T21:01:54.435Z,11.85
2023-05-07T21:04:22.056Z,13.50
2023-05-07T21:06:49.629Z,12.20
2023-05-07T21:09:17.194Z,11.98
2023-05-07T21:11:44.906Z,12.27
2023-05-07T21:14:12.483Z,12.15
2023-05-07T21:16:40.804Z,12.77
2023-05-07T21:19:08.979Z,12.88
2023-05-07T21:21:36.914Z,11.38
2023-05-07T21:24:05.722Z,9.45
2023-05-07T21:26:33.396Z,8.73
2023-05-07T21:29:00.923Z,8.82
2023-05-07T21:31:28.490Z,7.53
2023-05-07T21:33:57.328Z,8.35
2023-05-07T21:36:24.877Z,7.28
2023-05-07T21:38:52.387Z,7.72
2023-05-07T21:41:20.869Z,8.65
2023-05-07T21:43:48.425Z,7.95
2023-05-07T21:46:16.315Z,8.45
2023-05-07T21:48:44.129Z,7.55
2023-05-07T21:51:13.059Z,7.43
2023-05-07T21:53:40.901Z,7.43
2023-05-07T21:56:08.627Z,8.48
2023-05-07T21:58:36.160Z,8.50
2023-05-07T22:01:03.692Z,8.52
2023-05-07T22:03:31.404Z,8.75
2023-05-07T22:05:59.084Z,8.57
2023-05-07T22:08:26.631Z,8.45
2023-05-07T22:10:54.227Z,7.97
2023-05-07T22:13:21.879Z,8.50
2023-05-07T22:15:56.678Z,8.82
2023-05-07T22:18:26.458Z,9.48
2023-05-07T22:20:54.121Z,8.95
2023-05-07T22:23:21.710Z,9.52
2023-05-07T22:25:49.349Z,9.40
2023-05-07T22:28:17.119Z,9.45
2023-05-07T22:30:44.655Z,9.55
2023-05-07T22:33:12.140Z,9.98
2023-05-07T22:35:39.647Z,8.98
2023-05-07T22:38:07.194Z,8.82
2023-05-07T22:40:34.765Z,10.05
2023-05-07T22:43:02.283Z,9.98
2023-05-07T22:45:29.870Z,10.45
2023-05-07T22:47:57.539Z,10.85
2023-05-07T22:50:25.141Z,10.27
2023-05-07T22:52:52.657Z,10.68
2023-05-07T22:55:20.440Z,10.80
2023-05-07T22:57:47.983Z,11.55
2023-05-07T23:00:16.194Z,11.73
2023-05-07T23:02:43.865Z,11.80
2023-05-07T23:05:12.224Z,11.35
2023-05-07T23:07:39.883Z,10.10
2023-05-07T23:10:08.310Z,11.02
2023-05-07T23:12:35.847Z,11.77
2023-05-07T23:15:03.929Z,10.93
2023-05-07T23:17:34.408Z,11.57
2023-05-07T23:20:02.076Z,11.70
2023-05-07T23:22:29.762Z,11.45
2023-05-07T23:24:57.270Z,11.80
2023-05-07T23:27:24.806Z,12.60
2023-05-07T23:29:52.295Z,11.32
2023-05-07T23:32:19.953Z,12.38
2023-05-07T23:34:51.255Z,12.43
2023-05-07T23:37:18.987Z,12.82
2023-05-07T23:39:46.553Z,13.05
2023-05-07T23:42:14.170Z,12.65
2023-05-07T23:44:41.647Z,13.02
2023-05-07T23:47:09.124Z,12.57
2023-05-07T23:49:36.655Z,13.07
2023-05-07T23:52:04.249Z,14.07
2023-05-07T23:54:31.808Z,15.18
2023-05-07T23:56:59.398Z,16.27
2023-05-07T23:59:27.015Z,14.35
